Time;durP1;ratioP1;P1;durP2;ratioP2;P2;SDS_P1;SDS_P2;PMS_P1;PMS_P2;Temp;Humidity;BMP_temperature;BMP_pressure;BME280_temperature;BME280_humidity;BME280_pressure;Samples;Min_cycle;Max_cycle;Signal;HPM_P1;HPM_P2
2021/09/06 00:04:51;;;;;;;5.83;3.60;;;16.70;99.90;;;;;;20745213;28;20034;-76
2021/09/06 00:14:52;;;;;;;7.00;3.87;;;16.00;99.90;;;;;;20744104;28;20455;-77
2021/09/06 00:24:53;;;;;;;8.17;4.17;;;15.30;99.90;;;;;;20714459;28;20025;-77
2021/09/06 00:34:54;;;;;;;5.43;3.80;;;14.60;99.90;;;;;;20742873;28;20072;-77
2021/09/06 00:44:55;;;;;;;6.10;4.23;;;15.00;99.90;;;;;;20739257;28;20053;-77
2021/09/06 00:54:56;;;;;;;5.47;3.87;;;15.40;99.90;;;;;;20722955;28;20507;-77
2021/09/06 01:04:58;;;;;;;6.00;4.10;;;15.60;99.90;;;;;;20736705;28;20079;-76
2021/09/06 01:15:15;;;;;;;7.55;4.75;;;15.50;99.90;;;;;;20728374;28;20030;-77
2021/09/06 01:25:18;;;;;;;7.00;4.43;;;15.40;99.90;;;;;;20739987;28;20120;-75
2021/09/06 01:35:21;;;;;;;6.53;3.88;;;15.10;99.90;;;;;;20739369;28;20304;-76
2021/09/06 01:45:27;;;;;;;8.35;4.57;;;14.70;99.90;;;;;;20722741;28;20037;-75
2021/09/06 01:55:28;;;;;;;7.57;4.27;;;14.70;99.90;;;;;;20737533;28;20034;-76
2021/09/06 02:05:36;;;;;;;6.97;4.47;;;14.70;99.90;;;;;;20736322;28;20034;-76
2021/09/06 02:15:40;;;;;;;7.47;4.40;;;14.90;99.90;;;;;;20736121;28;20150;-77
2021/09/06 02:25:41;;;;;;;7.82;4.50;;;14.70;99.90;;;;;;20734883;28;20496;-76
2021/09/06 02:35:43;;;;;;;7.82;4.63;;;15.20;99.90;;;;;;20734686;28;20038;-77
2021/09/06 02:45:44;;;;;;;9.80;5.87;;;15.30;99.90;;;;;;20733608;28;20066;-76
2021/09/06 02:55:45;;;;;;;6.67;4.57;;;15.00;99.90;;;;;;20732865;28;20539;-77
2021/09/06 03:05:46;;;;;;;7.40;5.13;;;15.20;99.90;;;;;;20749287;28;20152;-76
2021/09/06 03:15:49;;;;;;;7.05;4.78;;;15.00;99.90;;;;;;20727309;28;20033;-76
2021/09/06 03:25:50;;;;;;;7.23;4.77;;;15.00;99.90;;;;;;20730573;28;20407;-77
2021/09/06 03:35:52;;;;;;;6.45;4.45;;;14.90;99.90;;;;;;20744781;28;20033;-77
2021/09/06 03:45:53;;;;;;;9.07;5.15;;;14.60;99.90;;;;;;20746710;28;20095;-74
2021/09/06 03:55:55;;;;;;;10.33;4.70;;;14.70;99.90;;;;;;20727041;28;20050;-75
2021/09/06 04:05:56;;;;;;;6.78;4.80;;;14.70;99.90;;;;;;20723083;28;20041;-75
2021/09/06 04:15:57;;;;;;;10.47;5.97;;;14.60;99.90;;;;;;20732737;28;20085;-75
2021/09/06 04:26:00;;;;;;;13.10;6.53;;;14.30;99.90;;;;;;20725453;28;20053;-75
2021/09/06 04:36:05;;;;;;;8.63;5.47;;;14.50;99.90;;;;;;20723927;28;20469;-76
2021/09/06 04:46:13;;;;;;;9.30;5.18;;;14.50;99.90;;;;;;20723308;28;20037;-76
2021/09/06 04:56:15;;;;;;;10.37;5.57;;;14.60;99.90;;;;;;20732618;28;20555;-75
2021/09/06 05:06:17;;;;;;;7.90;5.07;;;14.60;99.90;;;;;;20724515;28;20488;-74
2021/09/06 05:16:18;;;;;;;11.00;5.70;;;14.30;99.90;;;;;;20724222;28;20041;-75
2021/09/06 05:26:20;;;;;;;13.07;5.90;;;14.20;99.90;;;;;;20750093;28;20026;-74
2021/09/06 05:36:22;;;;;;;8.20;5.18;;;14.40;99.90;;;;;;20716942;28;20119;-76
2021/09/06 05:46:23;;;;;;;9.67;5.07;;;14.50;99.90;;;;;;20740855;28;20480;-77
2021/09/06 05:56:24;;;;;;;8.90;5.57;;;14.80;99.90;;;;;;20723046;28;20037;-76
2021/09/06 06:06:28;;;;;;;10.35;5.80;;;15.00;99.90;;;;;;20734828;28;20048;-76
2021/09/06 06:16:33;;;;;;;10.52;6.45;;;15.60;99.90;;;;;;20737297;28;20096;-75
2021/09/06 06:26:36;;;;;;;9.43;6.15;;;15.80;99.90;;;;;;20736366;28;20041;-75
2021/09/06 06:36:40;;;;;;;10.68;6.25;;;15.80;99.90;;;;;;20734885;28;20136;-75
2021/09/06 06:46:41;;;;;;;10.25;6.00;;;16.50;99.90;;;;;;20742086;28;20408;-75
2021/09/06 06:56:43;;;;;;;;;;;17.20;99.90;;;;;;20734541;28;20522;-75
2021/09/06 07:06:45;;;;;;;9.03;5.80;;;17.00;99.90;;;;;;20732318;28;19917;-75
2021/09/06 07:16:46;;;;;;;8.70;5.93;;;17.60;99.90;;;;;;20714731;28;20404;-76
2021/09/06 07:26:48;;;;;;;9.35;5.70;;;18.20;99.90;;;;;;20731140;28;20041;-75
2021/09/06 07:36:50;;;;;;;8.07;5.53;;;18.20;99.90;;;;;;20724519;28;20030;-74
2021/09/06 07:46:52;;;;;;;12.52;5.28;;;18.70;99.90;;;;;;20729315;28;20364;-74
2021/09/06 07:56:55;;;;;;;9.90;4.88;;;18.90;99.90;;;;;;20728686;28;20038;-74
2021/09/06 08:06:59;;;;;;;8.93;5.13;;;19.80;99.90;;;;;;20728697;28;20038;-73
2021/09/06 08:17:01;;;;;;;9.73;5.18;;;20.60;99.90;;;;;;20733734;28;20034;-73
2021/09/06 08:27:02;;;;;;;;;;;21.10;99.90;;;;;;20729997;28;20031;-73
2021/09/06 08:37:03;;;;;;;6.47;4.68;;;21.70;99.90;;;;;;20732192;28;19917;-74
2021/09/06 08:47:05;;;;;;;6.68;4.35;;;21.50;99.90;;;;;;20727203;28;20128;-74
2021/09/06 08:57:06;;;;;;;7.90;5.07;;;22.10;99.90;;;;;;20722350;28;20474;-74
2021/09/06 09:07:08;;;;;;;8.73;4.88;;;22.40;99.90;;;;;;20720289;28;20274;-74
2021/09/06 09:17:28;;;;;;;8.48;4.45;;;24.10;99.90;;;;;;20736965;28;20042;-74
2021/09/06 09:27:46;;;;;;;8.02;4.47;;;24.30;99.90;;;;;;20701778;28;20496;-74
2021/09/06 09:38:09;;;;;;;5.60;4.38;;;23.50;99.90;;;;;;20724415;28;20057;-75
2021/09/06 09:48:11;;;;;;;8.75;6.10;;;26.20;99.90;;;;;;20752887;28;20117;-75
2021/09/06 09:58:14;;;;;;;4.97;4.20;;;26.40;99.90;;;;;;20753522;28;20041;-76
2021/09/06 10:08:17;;;;;;;8.07;4.57;;;26.50;99.90;;;;;;20753492;28;20072;-75
2021/09/06 10:18:22;;;;;;;9.48;4.18;;;28.20;99.90;;;;;;20736909;28;20079;-77
2021/09/06 10:28:31;;;;;;;9.93;4.30;;;29.00;99.90;;;;;;20754185;28;20397;-76
2021/09/06 10:38:39;;;;;;;7.28;3.97;;;28.40;99.90;;;;;;20751776;28;20033;-76
2021/09/06 10:48:40;;;;;;;7.18;4.68;;;28.90;99.90;;;;;;20753398;28;20030;-75
2021/09/06 10:58:41;;;;;;;6.68;3.97;;;29.20;99.90;;;;;;20751287;28;20072;-76
2021/09/06 11:08:44;;;;;;;8.32;4.10;;;27.80;99.90;;;;;;20733785;28;20026;-76
2021/09/06 11:18:47;;;;;;;8.07;3.75;;;29.40;99.90;;;;;;20729174;28;20057;-76
2021/09/06 11:28:49;;;;;;;5.43;3.60;;;29.30;99.90;;;;;;20749821;28;20542;-76
2021/09/06 11:38:52;;;;;;;5.25;3.67;;;28.50;99.90;;;;;;20747728;28;20040;-75
2021/09/06 11:48:53;;;;;;;5.90;3.65;;;29.90;99.90;;;;;;20743697;28;20033;-75
2021/09/06 11:59:02;;;;;;;4.13;3.55;;;30.10;99.90;;;;;;20726651;28;20461;-75
2021/09/06 12:09:04;;;;;;;3.83;3.05;;;29.80;99.90;;;;;;20740481;28;20072;-76
2021/09/06 12:19:19;;;;;;;4.85;3.03;;;30.00;99.90;;;;;;20744242;28;20083;-75
2021/09/06 12:29:31;;;;;;;14.30;2.97;;;30.90;99.90;;;;;;20742736;28;20029;-74
2021/09/06 12:39:37;;;;;;;7.93;3.63;;;30.20;99.90;;;;;;20741935;28;20180;-75
2021/09/06 12:49:38;;;;;;;6.13;2.92;;;31.00;99.90;;;;;;20741949;28;20038;-75
2021/09/06 12:59:39;;;;;;;6.88;3.13;;;30.50;99.90;;;;;;20747662;28;20104;-76
2021/09/06 13:09:40;;;;;;;4.70;2.58;;;30.90;99.90;;;;;;20740437;28;20018;-76
2021/09/06 13:19:41;;;;;;;4.63;3.03;;;31.20;99.90;;;;;;20741317;28;20018;-75
2021/09/06 13:29:42;;;;;;;4.88;2.50;;;31.00;99.90;;;;;;20740986;28;20042;-75
2021/09/06 13:39:43;;;;;;;3.10;2.50;;;31.30;99.40;;;;;;20740083;28;20045;-75
2021/09/06 13:49:43;;;;;;;3.65;2.30;;;30.60;99.10;;;;;;20731225;28;20484;-76
2021/09/06 13:59:44;;;;;;;10.85;3.10;;;29.80;99.90;;;;;;20716124;28;20022;-75
2021/09/06 14:09:45;;;;;;;3.72;2.47;;;29.50;99.90;;;;;;20715691;28;20026;-75
2021/09/06 14:19:46;;;;;;;4.00;2.53;;;30.90;99.90;;;;;;20737845;28;20026;-76
2021/09/06 14:29:47;;;;;;;5.90;2.78;;;30.60;99.90;;;;;;20744825;28;20144;-75
2021/09/06 14:39:48;;;;;;;3.42;2.25;;;31.40;99.30;;;;;;20794662;28;20033;-75
2021/09/06 14:49:49;;;;;;;5.00;2.80;;;30.70;99.90;;;;;;20782246;28;20433;-75
2021/09/06 14:59:52;;;;;;;4.60;2.45;;;30.60;99.90;;;;;;20737409;28;20120;-75
2021/09/06 15:09:52;;;;;;;6.03;2.70;;;30.50;99.90;;;;;;20736304;28;20046;-75
2021/09/06 15:19:53;;;;;;;4.38;2.80;;;30.30;99.90;;;;;;20728484;28;20059;-75
2021/09/06 15:29:59;;;;;;;4.00;2.70;;;30.10;99.90;;;;;;20735755;28;20032;-74
2021/09/06 15:40:02;;;;;;;5.60;3.08;;;30.60;99.90;;;;;;20697375;28;20378;-75
2021/09/06 15:50:04;;;;;;;5.50;3.47;;;29.60;99.90;;;;;;20692552;28;20393;-74
2021/09/06 16:00:05;;;;;;;5.35;2.78;;;29.50;99.90;;;;;;20681153;28;20148;-74
2021/09/06 16:10:14;;;;;;;5.93;2.88;;;28.50;99.90;;;;;;20732274;28;20033;-75
2021/09/06 16:20:15;;;;;;;9.73;3.47;;;27.60;99.90;;;;;;20730475;28;20044;-75
2021/09/06 16:30:15;;;;;;;4.70;2.88;;;27.50;99.90;;;;;;20742127;28;20030;-75
2021/09/06 16:40:16;;;;;;;8.80;2.88;;;26.60;99.90;;;;;;20732798;28;20044;-75
2021/09/06 16:50:17;;;;;;;4.75;2.83;;;26.60;99.90;;;;;;20711540;28;20026;-75
2021/09/06 17:00:18;;;;;;;6.07;2.67;;;26.50;99.90;;;;;;20724254;28;20022;-75
2021/09/06 17:10:19;;;;;;;6.35;2.90;;;25.80;99.90;;;;;;20727087;28;20040;-75
2021/09/06 17:20:20;;;;;;;7.03;2.90;;;24.80;99.90;;;;;;20724024;28;20061;-75
2021/09/06 17:30:21;;;;;;;4.53;2.83;;;23.90;99.90;;;;;;20726114;28;20387;-74
2021/09/06 17:40:22;;;;;;;5.18;3.50;;;22.50;99.90;;;;;;20719238;28;20057;-74
2021/09/06 17:50:23;;;;;;;7.37;4.43;;;21.60;99.90;;;;;;20721041;28;20038;-75
2021/09/06 18:00:24;;;;;;;6.17;3.67;;;21.10;99.90;;;;;;20711732;28;20065;-74
2021/09/06 18:10:25;;;;;;;6.43;3.50;;;21.10;99.90;;;;;;20719067;28;20033;-75
2021/09/06 18:20:27;;;;;;;6.73;4.07;;;20.70;99.90;;;;;;20746400;28;20041;-73
2021/09/06 18:30:28;;;;;;;6.43;3.72;;;20.00;99.90;;;;;;20720736;28;20786;-74
2021/09/06 18:40:29;;;;;;;5.38;3.70;;;19.70;99.90;;;;;;20737590;28;20033;-74
2021/09/06 18:50:32;;;;;;;7.72;3.55;;;19.40;99.90;;;;;;20739427;28;20038;-73
2021/09/06 19:00:33;;;;;;;4.95;3.67;;;19.10;99.90;;;;;;20738555;28;20065;-72
2021/09/06 19:10:34;;;;;;;10.13;4.00;;;18.80;99.90;;;;;;20741124;28;20492;-74
2021/09/06 19:20:36;;;;;;;7.95;4.05;;;18.20;99.90;;;;;;20735167;28;20563;-74
2021/09/06 19:30:37;;;;;;;;;;;18.20;99.90;;;;;;20739912;28;20029;-74
2021/09/06 19:40:39;;;;;;;9.25;4.25;;;17.90;99.90;;;;;;20777223;28;19928;-73
2021/09/06 19:50:41;;;;;;;7.40;4.57;;;18.40;99.90;;;;;;20776439;28;20025;-75
2021/09/06 20:00:43;;;;;;;18.52;4.25;;;18.10;99.90;;;;;;20726980;28;20034;-75
2021/09/06 20:10:45;;;;;;;7.80;4.20;;;18.50;99.90;;;;;;20726159;28;20041;-75
2021/09/06 20:20:46;;;;;;;8.63;4.40;;;18.70;99.90;;;;;;20713511;28;20050;-76
2021/09/06 20:30:47;;;;;;;8.23;4.50;;;18.70;99.90;;;;;;20721649;28;20080;-74
2021/09/06 20:40:51;;;;;;;9.10;4.30;;;18.50;99.90;;;;;;20745267;28;20431;-75
2021/09/06 20:50:51;;;;;;;11.95;4.85;;;18.50;99.90;;;;;;20744628;28;20540;-73
2021/09/06 21:00:52;;;;;;;7.20;4.20;;;18.30;99.90;;;;;;20724487;28;20038;-72
2021/09/06 21:10:56;;;;;;;7.47;4.53;;;18.30;99.90;;;;;;20741162;28;20062;-71
2021/09/06 21:20:57;;;;;;;8.03;4.60;;;18.20;99.90;;;;;;20723700;28;20065;-72
2021/09/06 21:30:59;;;;;;;9.82;4.70;;;18.10;99.90;;;;;;20726713;28;20392;-74
2021/09/06 21:41:00;;;;;;;7.65;4.50;;;18.00;99.90;;;;;;20756911;28;20048;-75
2021/09/06 21:51:01;;;;;;;7.27;4.17;;;18.00;99.90;;;;;;20761055;28;20495;-73
2021/09/06 22:01:02;;;;;;;10.37;4.93;;;17.90;99.90;;;;;;20739092;28;20034;-74
2021/09/06 22:11:04;;;;;;;10.83;5.33;;;17.70;99.90;;;;;;20771642;28;20033;-73
2021/09/06 22:21:06;;;;;;;6.57;4.50;;;17.50;99.90;;;;;;20739184;28;20034;-74
2021/09/06 22:31:09;;;;;;;9.82;4.47;;;17.50;99.90;;;;;;20739315;28;20513;-74
2021/09/06 22:41:10;;;;;;;14.50;5.30;;;17.40;99.90;;;;;;20751216;28;20138;-73
2021/09/06 22:51:11;;;;;;;9.73;4.70;;;17.30;99.90;;;;;;20749813;28;20029;-74
2021/09/06 23:01:12;;;;;;;8.27;5.00;;;17.00;99.90;;;;;;20748340;28;20342;-73
2021/09/06 23:11:14;;;;;;;9.98;5.20;;;16.90;99.90;;;;;;20737798;28;20033;-73
2021/09/06 23:21:17;;;;;;;9.85;4.95;;;16.90;99.90;;;;;;20743246;28;20029;-74
2021/09/06 23:31:17;;;;;;;11.27;5.43;;;16.80;99.90;;;;;;20728071;28;20072;-73
2021/09/06 23:41:18;;;;;;;15.57;5.37;;;16.70;99.90;;;;;;20744995;28;20026;-76
2021/09/06 23:51:19;;;;;;;10.33;5.73;;;16.60;99.90;;;;;;20743409;28;20026;-75
